Terminal Aerodrome Forecast
Issued by NWS Denver/Boulder, CO

Home | Current Version | Previous Version | Text Only | Print | Product List | Glossary On
Versions: 1 2 3 4 5 6 7 8 9 10 11 12 13 14 15 16 17 18 19 20 21 22 23 24 25 26 27 28 29 30 31 32 33 34 35 36 37 38 39 40 41 42 43 44 45 46 47 48 49 50
000
FTUS45 KBOU 190359 AAE
TAFDEN
TAF AMD
KDEN 190359Z 1904/2006 03013G25KT P6SM BKN005 OVC012
     FM191000 08014KT 3SM BR BKN006 OVC015
      TEMPO 1911/1915 1SM -FZDZ BR OVC008
     FM191500 08012KT 2SM -FZDZ BR OVC005
     FM192000 07013KT 2SM -SN BR OVC004
     FM200100 05016KT 1SM -SN BR OVC003=

USA.gov is the U.S. government's official web portal to all federal, state and local government web resources and services.